Time,TemperatureF,DewpointF,PressureIn,WindDirection,WindDirectionDegrees,WindSpeedMPH,WindSpeedGustMPH,Humidity,HourlyPrecipIn,Conditions,Clouds,dailyrainin,SoftwareType,DateUTC
2013-05-15 00:02:00,69.6,59.0,30.00,South,190,1.0,6.0,70,0.00,,,0.00,weatherlink.com 1.10,2013-05-15 06:02:00,
2013-05-15 00:17:00,69.3,60.0,30.00,ESE,116,1.0,3.0,72,0.00,,,0.00,weatherlink.com 1.10,2013-05-15 06:17:00,
2013-05-15 00:32:00,69.2,60.0,30.00,SE,131,3.0,5.0,73,0.00,,,0.00,weatherlink.com 1.10,2013-05-15 06:32:00,
2013-05-15 00:47:00,69.1,61.0,30.00,SE,135,1.0,4.0,75,0.00,,,0.00,weatherlink.com 1.10,2013-05-15 06:47:00,
2013-05-15 01:02:00,69.4,62.0,29.99,ESE,112,3.0,4.0,78,0.00,,,0.00,weatherlink.com 1.10,2013-05-15 07:02:00,
2013-05-15 01:17:00,69.9,64.0,29.99,East,83,3.0,7.0,80,0.00,,,0.00,weatherlink.com 1.10,2013-05-15 07:17:00,
2013-05-15 01:32:00,70.5,64.0,29.98,South,170,0.0,7.0,80,0.00,,,0.00,weatherlink.com 1.10,2013-05-15 07:32:00,
2013-05-15 01:47:00,70.9,64.0,29.98,ESE,112,1.0,10.0,80,0.00,,,0.00,weatherlink.com 1.10,2013-05-15 07:47:00,
2013-05-15 02:02:00,71.1,65.0,29.97,SE,135,4.0,10.0,80,0.00,,,0.00,weatherlink.com 1.10,2013-05-15 08:02:00,
2013-05-15 02:17:00,71.0,65.0,29.96,SSW,204,3.0,8.0,81,0.00,,,0.00,weatherlink.com 1.10,2013-05-15 08:17:00,
2013-05-15 02:33:00,70.7,65.0,29.96,ENE,70,4.0,6.0,82,0.00,,,0.00,weatherlink.com 1.10,2013-05-15 08:33:00,
2013-05-15 02:48:00,70.3,65.0,29.96,SE,142,2.0,10.0,83,0.00,,,0.00,weatherlink.com 1.10,2013-05-15 08:48:00,
2013-05-15 03:03:00,70.1,65.0,29.96,SE,132,3.0,6.0,84,0.00,,,0.00,weatherlink.com 1.10,2013-05-15 09:03:00,
2013-05-15 03:18:00,69.8,65.0,29.96,ESE,121,3.0,6.0,85,0.00,,,0.00,weatherlink.com 1.10,2013-05-15 09:18:00,
2013-05-15 03:33:00,69.7,65.0,29.95,SE,129,3.0,7.0,85,0.00,,,0.00,weatherlink.com 1.10,2013-05-15 09:33:00,
2013-05-15 03:48:00,69.5,65.0,29.96,SW,225,0.0,7.0,86,0.00,,,0.00,weatherlink.com 1.10,2013-05-15 09:48:00,
2013-05-15 04:03:00,69.2,65.0,29.96,ESE,118,3.0,9.0,86,0.00,,,0.00,weatherlink.com 1.10,2013-05-15 10:03:00,
2013-05-15 04:18:00,69.0,65.0,29.96,SE,131,4.0,8.0,86,0.00,,,0.00,weatherlink.com 1.10,2013-05-15 10:18:00,
2013-05-15 04:33:00,68.9,65.0,29.96,SE,131,2.0,6.0,86,0.00,,,0.00,weatherlink.com 1.10,2013-05-15 10:33:00,
2013-05-15 04:48:00,68.7,65.0,29.96,ESE,121,4.0,10.0,87,0.00,,,0.00,weatherlink.com 1.10,2013-05-15 10:48:00,
2013-05-15 05:03:00,68.6,65.0,29.95,ESE,114,3.0,7.0,87,0.00,,,0.00,weatherlink.com 1.10,2013-05-15 11:03:00,
2013-05-15 05:18:00,68.6,65.0,29.95,SE,133,4.0,6.0,87,0.00,,,0.00,weatherlink.com 1.10,2013-05-15 11:18:00,
2013-05-15 05:33:00,68.4,64.0,29.95,SSE,160,3.0,9.0,87,0.00,,,0.00,weatherlink.com 1.10,2013-05-15 11:33:00,
2013-05-15 05:48:00,68.4,64.0,29.95,SE,124,4.0,11.0,87,0.00,,,0.00,weatherlink.com 1.10,2013-05-15 11:48:00,
2013-05-15 06:03:00,68.5,65.0,29.95,East,82,6.0,8.0,87,0.00,,,0.00,weatherlink.com 1.10,2013-05-15 12:03:00,
2013-05-15 06:18:00,68.6,65.0,29.95,ESE,104,2.0,10.0,87,0.00,,,0.00,weatherlink.com 1.10,2013-05-15 12:18:00,
2013-05-15 06:33:00,68.7,65.0,29.95,SE,144,4.0,10.0,87,0.00,,,0.00,weatherlink.com 1.10,2013-05-15 12:33:00,
2013-05-15 06:48:00,68.8,65.0,29.95,SE,134,6.0,15.0,87,0.00,,,0.00,weatherlink.com 1.10,2013-05-15 12:48:00,
2013-05-15 07:18:00,68.3,65.0,29.98,ESE,114,1.0,5.0,89,0.00,,,0.00,weatherlink.com 1.10,2013-05-15 13:18:00,
2013-05-15 07:33:00,67.6,65.0,29.98,ESE,113,1.0,5.0,91,0.01,,,0.01,weatherlink.com 1.10,2013-05-15 13:33:00,
2013-05-15 07:48:00,67.5,65.0,29.98,SSE,156,3.0,5.0,92,0.01,,,0.01,weatherlink.com 1.10,2013-05-15 13:48:00,
2013-05-15 08:03:00,67.5,66.0,29.98,East,101,3.0,5.0,93,0.01,,,0.01,weatherlink.com 1.10,2013-05-15 14:03:00,
2013-05-15 08:33:00,69.3,67.0,29.96,SE,131,1.0,7.0,91,0.00,,,0.01,weatherlink.com 1.10,2013-05-15 14:33:00,
2013-05-15 08:48:00,69.5,67.0,29.97,SSE,159,1.0,9.0,90,0.00,,,0.01,weatherlink.com 1.10,2013-05-15 14:48:00,
2013-05-15 09:03:00,69.6,67.0,29.96,ESE,121,2.0,8.0,90,0.00,,,0.01,weatherlink.com 1.10,2013-05-15 15:03:00,
2013-05-15 09:18:00,69.9,67.0,29.97,SE,141,0.0,7.0,89,0.00,,,0.01,weatherlink.com 1.10,2013-05-15 15:18:00,
2013-05-15 09:33:00,70.5,67.0,29.97,East,98,3.0,8.0,89,0.00,,,0.01,weatherlink.com 1.10,2013-05-15 15:33:00,
2013-05-15 09:48:00,70.8,67.0,29.96,ESE,117,2.0,13.0,87,0.00,,,0.01,weatherlink.com 1.10,2013-05-15 15:48:00,
2013-05-15 10:18:00,71.1,67.0,29.96,ESE,114,3.0,6.0,87,0.00,,,0.01,weatherlink.com 1.10,2013-05-15 16:18:00,
2013-05-15 10:33:00,71.3,67.0,29.96,SE,135,4.0,8.0,87,0.00,,,0.01,weatherlink.com 1.10,2013-05-15 16:33:00,
2013-05-15 10:48:00,72.3,68.0,29.96,South,191,0.0,11.0,86,0.00,,,0.01,weatherlink.com 1.10,2013-05-15 16:48:00,
2013-05-15 11:03:00,75.2,68.0,29.95,SE,144,4.0,12.0,79,0.00,,,0.01,weatherlink.com 1.10,2013-05-15 17:03:00,
2013-05-15 11:18:00,76.1,68.0,29.94,East,96,6.0,14.0,77,0.00,,,0.01,weatherlink.com 1.10,2013-05-15 17:18:00,
2013-05-15 11:33:00,77.1,69.0,29.94,SE,142,4.0,9.0,76,0.00,,,0.01,weatherlink.com 1.10,2013-05-15 17:33:00,
2013-05-15 11:48:00,76.5,68.0,29.93,SE,124,8.0,16.0,75,0.00,,,0.01,weatherlink.com 1.10,2013-05-15 17:48:00,
2013-05-15 12:03:00,76.0,68.0,29.93,SSE,149,4.0,13.0,76,0.00,,,0.01,weatherlink.com 1.10,2013-05-15 18:03:00,
2013-05-15 12:18:00,75.5,68.0,29.92,ESE,109,3.0,16.0,77,0.00,,,0.01,weatherlink.com 1.10,2013-05-15 18:18:00,
2013-05-15 12:33:00,75.0,68.0,29.91,ESE,122,4.0,18.0,78,0.00,,,0.01,weatherlink.com 1.10,2013-05-15 18:33:00,
2013-05-15 12:49:00,74.5,68.0,29.91,SE,144,1.0,9.0,79,0.00,,,0.01,weatherlink.com 1.10,2013-05-15 18:49:00,
2013-05-15 13:04:00,73.5,67.0,29.90,ESE,109,12.0,15.0,80,0.00,,,0.01,weatherlink.com 1.10,2013-05-15 19:04:00,
2013-05-15 13:19:00,70.5,67.0,29.89,SE,139,6.0,13.0,89,0.13,,,0.14,weatherlink.com 1.10,2013-05-15 19:19:00,
2013-05-15 13:34:00,69.8,67.0,29.89,East,101,10.0,16.0,91,0.15,,,0.16,weatherlink.com 1.10,2013-05-15 19:34:00,
2013-05-15 14:04:00,68.8,67.0,29.88,ESE,106,7.0,15.0,93,0.19,,,0.20,weatherlink.com 1.10,2013-05-15 20:04:00,
2013-05-15 14:19:00,69.1,67.0,29.87,ESE,114,6.0,17.0,94,0.06,,,0.20,weatherlink.com 1.10,2013-05-15 20:19:00,
2013-05-15 14:34:00,68.6,67.0,29.86,East,94,10.0,14.0,94,0.03,,,0.20,weatherlink.com 1.10,2013-05-15 20:34:00,
2013-05-15 14:49:00,68.9,67.0,29.86,SE,136,7.0,16.0,94,0.02,,,0.21,weatherlink.com 1.10,2013-05-15 20:49:00,
2013-05-15 15:04:00,68.9,67.0,29.84,ESE,105,7.0,16.0,94,0.01,,,0.21,weatherlink.com 1.10,2013-05-15 21:04:00,
2013-05-15 15:19:00,68.8,67.0,29.84,ESE,116,7.0,11.0,94,0.01,,,0.21,weatherlink.com 1.10,2013-05-15 21:19:00,
2013-05-15 15:34:00,68.6,67.0,29.84,East,98,3.0,13.0,94,0.01,,,0.21,weatherlink.com 1.10,2013-05-15 21:34:00,
2013-05-15 15:49:00,68.3,67.0,29.84,SE,136,4.0,12.0,94,0.00,,,0.21,weatherlink.com 1.10,2013-05-15 21:49:00,
2013-05-15 16:04:00,68.1,66.0,29.84,SE,129,6.0,12.0,94,0.00,,,0.21,weatherlink.com 1.10,2013-05-15 22:04:00,
2013-05-15 16:19:00,68.1,67.0,29.83,ESE,115,5.0,14.0,95,0.00,,,0.21,weatherlink.com 1.10,2013-05-15 22:19:00,
2013-05-15 16:34:00,68.2,67.0,29.82,ESE,103,4.0,13.0,95,0.00,,,0.21,weatherlink.com 1.10,2013-05-15 22:34:00,
2013-05-15 16:49:00,68.3,67.0,29.82,ESE,118,4.0,13.0,94,0.00,,,0.21,weatherlink.com 1.10,2013-05-15 22:49:00,
2013-05-15 17:04:00,68.3,67.0,29.80,SE,134,6.0,11.0,94,0.00,,,0.21,weatherlink.com 1.10,2013-05-15 23:04:00,
2013-05-15 17:19:00,68.3,67.0,29.80,ESE,107,6.0,13.0,94,0.00,,,0.21,weatherlink.com 1.10,2013-05-15 23:19:00,
2013-05-15 17:34:00,68.4,67.0,29.78,ESE,117,7.0,13.0,94,0.00,,,0.21,weatherlink.com 1.10,2013-05-15 23:34:00,
2013-05-15 18:04:00,68.5,67.0,29.77,ENE,75,7.0,16.0,94,0.00,,,0.21,weatherlink.com 1.10,2013-05-16 00:04:00,
2013-05-15 18:19:00,68.5,67.0,29.77,East,91,4.0,12.0,94,0.00,,,0.21,weatherlink.com 1.10,2013-05-16 00:19:00,
2013-05-15 18:34:00,68.5,67.0,29.78,SE,127,6.0,15.0,94,0.00,,,0.21,weatherlink.com 1.10,2013-05-16 00:34:00,
2013-05-15 18:49:00,68.6,67.0,29.78,ESE,112,6.0,13.0,93,0.00,,,0.21,weatherlink.com 1.10,2013-05-16 00:49:00,
2013-05-15 19:04:00,68.6,67.0,29.78,ESE,106,4.0,15.0,93,0.00,,,0.21,weatherlink.com 1.10,2013-05-16 01:04:00,
2013-05-15 19:19:00,68.6,67.0,29.79,ENE,68,9.0,16.0,93,0.00,,,0.21,weatherlink.com 1.10,2013-05-16 01:19:00,
2013-05-15 19:34:00,68.6,67.0,29.77,East,91,11.0,12.0,93,0.00,,,0.21,weatherlink.com 1.10,2013-05-16 01:34:00,
2013-05-15 20:04:00,68.7,66.0,29.77,SSE,148,9.0,10.0,92,0.00,,,0.21,weatherlink.com 1.10,2013-05-16 02:04:00,
2013-05-15 20:34:00,68.9,67.0,29.80,East,98,3.0,12.0,92,0.00,,,0.21,weatherlink.com 1.10,2013-05-16 02:34:00,
2013-05-15 20:49:00,69.0,67.0,29.81,SW,226,1.0,3.0,92,0.00,,,0.21,weatherlink.com 1.10,2013-05-16 02:49:00,
2013-05-15 21:04:00,68.6,67.0,29.82,ESE,116,1.0,4.0,93,0.27,,,0.48,weatherlink.com 1.10,2013-05-16 03:04:00,
2013-05-15 21:35:00,68.4,67.0,29.81,ESE,116,5.0,6.0,95,0.41,,,0.62,weatherlink.com 1.10,2013-05-16 03:35:00,
2013-05-15 21:50:00,68.3,67.0,29.78,ENE,64,9.0,13.0,94,0.42,,,0.63,weatherlink.com 1.10,2013-05-16 03:50:00,
2013-05-15 22:05:00,67.9,67.0,29.77,East,91,6.0,21.0,95,0.12,,,0.63,weatherlink.com 1.10,2013-05-16 04:05:00,
2013-05-15 22:20:00,67.6,66.0,29.77,NE,49,4.0,12.0,95,0.02,,,0.63,weatherlink.com 1.10,2013-05-16 04:20:00,
2013-05-15 22:35:00,67.3,66.0,29.80,SE,132,0.0,9.0,95,0.01,,,0.63,weatherlink.com 1.10,2013-05-16 04:35:00,
2013-05-15 22:50:00,67.2,66.0,29.78,ESE,109,11.0,11.0,95,0.01,,,0.64,weatherlink.com 1.10,2013-05-16 04:50:00,
2013-05-15 23:05:00,66.9,66.0,29.84,WNW,297,4.0,10.0,95,0.03,,,0.00,weatherlink.com 1.10,2013-05-16 05:05:00,
2013-05-15 23:20:00,62.7,61.0,29.87,NNE,18,1.0,17.0,94,0.70,,,0.67,weatherlink.com 1.10,2013-05-16 05:20:00,
2013-05-15 23:35:00,61.8,60.0,29.88,NNE,27,0.0,10.0,95,1.09,,,1.06,weatherlink.com 1.10,2013-05-16 05:35:00,
2013-05-15 23:50:00,61.6,60.0,29.84,West,263,0.0,2.0,95,1.15,,,1.14,weatherlink.com 1.10,2013-05-16 05:50:00,